Share

Dutch Harbor, AK

3:59 AM AKDT on April 24, 2014 (GMT -0800)
Dutch Harbor (PADU) Elev 13 ft | 53.90 °N, 166.54 °W | Change Station

Current weather conditions updated 1 hour ago

Overcast
Overcast
40 °F
Feels Like 36 °F
N
6
Wind Variable Wind from South
Sunrise 7:47 AM
Sunset 10:25 PM
Moon Waning Crescent

Today is forecast to be Cooler than yesterday. Rain mixed with snow.

Pressure 29.58 in
Visibility 10.0 miles
Clouds Few 2000 ft
Scattered Clouds 3000 ft
Overcast 4100 ft
Windchill 36 °F
Dew Point 35 °F
Humidity 83%
Rainfall 0.02 in
Snow Depth Not available.
UV 0 out of 16
Pollen Not available.
Air Quality Not available.
Flu Activity Sporadic
METAR PADU 241056Z AUTO 17005KT 10SM FEW020 SCT030 OVC041 04/02 A2957 RMK AO2 RAE10 SLP017 P0001 T00440017

More Conditions Fewer Conditions

Pressure 29.58 in
Visibility 10.0 miles
Clouds Few 2000 ft
Scattered Clouds 3000 ft
Overcast 4100 ft
Windchill 36 °F
Dew Point 35 °F
Humidity 83%
Rainfall 0.02 in
Snow Depth Not available.
UV 0 out of 16
Pollen Not available.
Air Quality Not available.
Flu Activity Sporadic
METAR PADU 241056Z AUTO 17005KT 10SM FEW020 SCT030 OVC041 04/02 A2957 RMK AO2 RAE10 SLP017 P0001 T00440017

More Conditions Fewer Conditions

10-Day Weather Forecast

Almanac

Astronomy

Apr. 24, 2014 Rise Set
Actual Time 7:47 AM AKDT 10:25 PM AKDT
Civil Twilight 7:07 AM AKDT 11:05 PM AKDT
Nautical Twilight 6:17 AM AKDT 11:56 PM AKDT
Astronomical Twilight 5:15 AM AKDT 12:59 AM AKDT
Moon 5:48 AM AKDT 5:17 PM AKDT
Length of Visible Light 15h 57m
Length of Day
14h 38m
Tomorrow will be 3m 59s longer.
Waning Crescent, 26% of the Moon is Illuminated
Today
Waning Crescent
Apr 29
New
May 6
First Quarter
May 14
Full
May 21
Last Quarter

Today's Extremes

State Highs State Lows

Community

  • Stacked
    Stacked
  • clouds approaching Red Sox Nation
    clouds approaching Red Sox Nation
  • Balance
    Balance
  • Nestled In
    Nestled In
  • Stunning Sunrise
    Stunning Sunrise

WunderPhotos

Upload Photos

1,704,585 photos uploaded!

WunderBlogs® & News

Nearby

Snow Depth

Station Depth Elevation
Port Graham 2 in 300 ft
Mcneil Canyon 3 in 1320 ft
MF Bradley River 17 in 2300 ft
Nuka Glacier 26 in 1250 ft
Rocky Point 1 in 500 ft

Coastal Water Temperatures

Place Temperature
No Stations Reporting

Earthquake Activity

City Distance Mag. Time & Date
No recent earthquake activity has been reported nearby.
Minimum magnitude displayed is 2.5.

Nearby Weather Stations

There are no personal weather stations in this area.

What do you think?

We're not finished. Please let us know what you like, what you don't like, and what you are still missing.